Time;durP1;ratioP1;P1;durP2;ratioP2;P2;SDS_P1;SDS_P2;PMS_P1;PMS_P2;Temp;Humidity;BMP_temperature;BMP_pressure;BME280_temperature;BME280_humidity;BME280_pressure;Samples;Min_cycle;Max_cycle;Signal;HPM_P1;HPM_P2
2021/09/20 00:02:07;;;;;;;2.70;2.50;;;20.30;63.50;;;;;;5055029;28;20215;-68
2021/09/20 00:04:32;;;;;;;2.80;2.60;;;20.30;63.50;;;;;;5054441;28;20240;-67
2021/09/20 00:06:57;;;;;;;2.35;2.10;;;20.30;63.50;;;;;;5054865;28;20254;-67
2021/09/20 00:09:23;;;;;;;3.08;2.78;;;20.30;63.50;;;;;;5054961;28;20532;-68
2021/09/20 00:11:48;;;;;;;2.83;2.63;;;20.30;63.50;;;;;;5053908;28;20190;-68
2021/09/20 00:14:14;;;;;;;2.83;2.63;;;20.30;63.50;;;;;;5055215;28;20179;-68
2021/09/20 00:16:39;;;;;;;2.70;2.50;;;20.30;63.50;;;;;;5055106;28;20257;-69
2021/09/20 00:19:05;;;;;;;2.70;2.50;;;20.30;63.40;;;;;;5054085;28;20171;-68
2021/09/20 00:21:30;;;;;;;2.72;2.53;;;20.30;64.30;;;;;;5054798;28;20200;-68
2021/09/20 00:23:56;;;;;;;3.08;2.78;;;20.30;63.50;;;;;;5054592;28;20611;-68
2021/09/20 00:26:21;;;;;;;2.53;2.35;;;20.30;63.40;;;;;;5053974;28;20630;-67
2021/09/20 00:28:47;;;;;;;2.67;2.47;;;20.30;63.40;;;;;;5054820;28;20232;-67
2021/09/20 00:31:12;;;;;;;2.83;2.50;;;20.20;63.40;;;;;;5054599;28;20222;-68
2021/09/20 00:33:38;;;;;;;2.60;2.40;;;20.30;63.40;;;;;;5053990;28;20221;-69
2021/09/20 00:36:04;;;;;;;2.90;2.70;;;20.20;63.40;;;;;;5054263;28;20167;-69
2021/09/20 00:38:29;;;;;;;3.05;2.75;;;20.20;63.40;;;;;;5054515;28;20176;-69
2021/09/20 00:40:55;;;;;;;2.72;2.50;;;20.20;63.30;;;;;;5053497;28;20514;-68
2021/09/20 00:43:20;;;;;;;2.58;2.33;;;20.20;63.30;;;;;;5054467;28;20215;-68
2021/09/20 00:45:46;;;;;;;2.60;2.40;;;20.20;63.30;;;;;;5054223;28;20176;-68
2021/09/20 00:48:11;;;;;;;2.45;2.25;;;20.20;63.40;;;;;;5053818;28;20183;-68
2021/09/20 00:50:37;;;;;;;2.80;2.60;;;20.20;63.30;;;;;;5054457;28;20175;-68
2021/09/20 00:53:02;;;;;;;2.88;2.67;;;20.20;63.40;;;;;;5053197;28;20175;-68
2021/09/20 00:55:28;;;;;;;3.38;3.08;;;20.20;63.30;;;;;;5054120;28;20178;-69
2021/09/20 00:57:53;;;;;;;2.78;2.58;;;20.20;63.30;;;;;;5053756;28;20210;-68
2021/09/20 01:00:19;;;;;;;2.50;2.30;;;20.20;63.30;;;;;;5035764;28;20246;-68
2021/09/20 01:02:44;;;;;;;3.50;3.20;;;20.20;63.30;;;;;;5054193;28;20210;-67
2021/09/20 01:05:10;;;;;;;2.50;2.30;;;20.20;63.30;;;;;;5053782;28;20171;-67
2021/09/20 01:07:36;;;;;;;2.70;2.30;;;20.20;63.30;;;;;;5053342;28;20660;-68
2021/09/20 01:10:02;;;;;;;2.60;2.40;;;20.10;63.20;;;;;;5053902;28;20675;-68
2021/09/20 01:12:27;;;;;;;3.00;2.80;;;20.20;63.20;;;;;;5053666;28;20270;-68
2021/09/20 01:14:55;;;;;;;3.30;3.00;;;20.10;63.20;;;;;;5053073;28;20672;-68
2021/09/20 01:17:21;;;;;;;2.83;2.63;;;20.10;63.20;;;;;;5036244;28;20261;-69
2021/09/20 01:19:46;;;;;;;3.05;2.78;;;20.10;63.20;;;;;;5053679;28;20185;-69
2021/09/20 01:22:16;;;;;;;3.15;2.78;;;20.10;63.20;;;;;;5052462;28;20673;-68
2021/09/20 01:24:42;;;;;;;3.03;2.83;;;20.10;63.20;;;;;;5053607;28;20217;-68
2021/09/20 01:27:08;;;;;;;3.00;2.80;;;20.10;63.20;;;;;;5053249;28;20210;-67
2021/09/20 01:29:34;;;;;;;3.00;2.80;;;20.10;63.20;;;;;;5052965;28;20664;-68
2021/09/20 01:32:00;;;;;;;2.70;2.50;;;20.10;63.10;;;;;;5053189;28;20649;-68
2021/09/20 01:34:26;;;;;;;3.47;3.17;;;20.10;63.20;;;;;;5053481;28;20638;-69
2021/09/20 01:36:52;;;;;;;3.50;3.13;;;20.10;63.20;;;;;;5052324;28;20179;-69
2021/09/20 01:39:19;;;;;;;3.03;2.83;;;20.10;63.10;;;;;;5053346;28;20183;-68
2021/09/20 01:41:45;;;;;;;3.25;2.95;;;20.10;63.10;;;;;;5053161;28;20211;-68
2021/09/20 01:44:10;;;;;;;2.70;2.50;;;20.10;63.10;;;;;;5052444;28;20196;-68
2021/09/20 01:46:36;;;;;;;2.85;2.65;;;20.10;63.10;;;;;;5053171;28;20570;-67
2021/09/20 01:49:01;;;;;;;3.35;3.03;;;20.10;63.10;;;;;;5052918;28;20238;-68
2021/09/20 01:51:27;;;;;;;2.97;2.67;;;20.10;63.10;;;;;;5052375;28;20216;-68
2021/09/20 01:53:53;;;;;;;2.85;2.60;;;20.10;63.10;;;;;;5052760;28;20184;-69
2021/09/20 01:56:19;;;;;;;2.75;2.55;;;20.10;63.10;;;;;;5051889;28;20265;-68
2021/09/20 01:58:44;;;;;;;3.08;2.80;;;20.10;63.10;;;;;;5053242;28;20186;-68
2021/09/20 02:01:10;;;;;;;2.72;2.53;;;20.10;63.10;;;;;;5052909;28;20178;-68
2021/09/20 02:03:35;;;;;;;3.17;2.95;;;20.00;62.90;;;;;;5052335;28;20225;-68
2021/09/20 02:06:01;;;;;;;3.08;2.88;;;20.00;62.90;;;;;;5052643;28;20257;-68
2021/09/20 02:08:26;;;;;;;3.28;2.92;;;20.00;62.90;;;;;;5052914;28;20702;-68
2021/09/20 02:10:52;;;;;;;3.05;2.85;;;20.00;62.90;;;;;;5052115;28;20171;-68
2021/09/20 02:13:17;;;;;;;3.13;2.92;;;20.10;63.00;;;;;;5052619;28;20223;-69
2021/09/20 02:15:43;;;;;;;3.33;3.00;;;20.00;62.90;;;;;;5052803;28;20560;-69
2021/09/20 02:18:08;;;;;;;2.90;2.70;;;20.00;62.90;;;;;;5051898;28;20637;-69
2021/09/20 02:20:34;;;;;;;3.58;2.97;;;20.00;62.80;;;;;;5052639;28;20180;-69
2021/09/20 02:22:59;;;;;;;3.20;2.90;;;20.00;62.90;;;;;;5052362;28;20203;-68
2021/09/20 02:25:25;;;;;;;2.90;2.70;;;20.00;62.90;;;;;;5052030;28;20179;-68
2021/09/20 02:27:50;;;;;;;2.95;2.75;;;20.00;62.90;;;;;;5052540;28;20182;-68
2021/09/20 02:30:16;;;;;;;3.08;2.88;;;20.00;62.90;;;;;;5052746;28;20199;-68
2021/09/20 02:32:41;;;;;;;3.05;2.72;;;20.00;62.90;;;;;;5052053;28;20270;-68
2021/09/20 02:35:07;;;;;;;3.03;2.83;;;20.00;62.80;;;;;;5052397;28;20563;-69
2021/09/20 02:37:33;;;;;;;3.35;3.15;;;20.00;62.80;;;;;;5052443;28;20707;-68
2021/09/20 02:39:58;;;;;;;2.95;2.75;;;19.90;62.80;;;;;;5051595;28;20179;-69
2021/09/20 02:42:24;;;;;;;3.47;3.17;;;20.00;62.80;;;;;;5052696;28;20203;-68
2021/09/20 02:44:50;;;;;;;3.10;2.90;;;19.90;62.80;;;;;;5052657;28;20179;-68
2021/09/20 02:47:15;;;;;;;3.08;2.88;;;19.90;62.70;;;;;;5052091;28;20671;-67
2021/09/20 02:49:41;;;;;;;2.97;2.78;;;19.90;62.70;;;;;;5052543;28;20234;-67
2021/09/20 02:52:06;;;;;;;3.42;3.20;;;19.90;62.70;;;;;;5052170;28;20649;-68
2021/09/20 02:54:31;;;;;;;3.55;3.25;;;19.90;62.70;;;;;;5051614;28;20201;-68
2021/09/20 02:56:57;;;;;;;3.33;3.03;;;19.90;62.70;;;;;;5052184;28;20175;-68
2021/09/20 02:59:22;;;;;;;3.15;2.95;;;19.90;62.60;;;;;;5052328;28;20178;-68
2021/09/20 03:01:48;;;;;;;3.30;2.85;;;19.90;62.70;;;;;;5051352;28;20582;-68
2021/09/20 03:04:13;;;;;;;3.40;3.10;;;19.90;62.70;;;;;;5052292;28;20175;-67
2021/09/20 03:06:39;;;;;;;3.25;3.05;;;19.90;62.70;;;;;;5051607;28;20175;-67
2021/09/20 03:09:04;;;;;;;3.30;2.97;;;19.90;62.70;;;;;;5053273;28;20175;-68
2021/09/20 03:11:30;;;;;;;3.00;2.80;;;19.90;62.70;;;;;;5056149;28;20183;-68
2021/09/20 03:13:55;;;;;;;2.55;2.38;;;19.90;62.60;;;;;;5054883;28;20697;-69
2021/09/20 03:16:21;;;;;;;3.35;3.10;;;19.90;62.70;;;;;;5056248;28;20179;-69
2021/09/20 03:18:47;;;;;;;2.78;2.58;;;19.90;62.60;;;;;;5056007;28;20186;-69
2021/09/20 03:21:12;;;;;;;2.60;2.40;;;19.90;62.60;;;;;;5055410;28;20175;-69
2021/09/20 03:23:38;;;;;;;3.15;2.95;;;19.90;62.50;;;;;;5055785;28;20195;-68
2021/09/20 03:26:03;;;;;;;3.17;2.88;;;19.80;62.50;;;;;;5055727;28;20687;-68
2021/09/20 03:28:29;;;;;;;3.63;2.92;;;19.80;62.60;;;;;;5055300;28;20266;-68
2021/09/20 03:30:55;;;;;;;3.10;2.80;;;19.80;62.50;;;;;;5055529;28;20178;-69
2021/09/20 03:33:20;;;;;;;3.45;3.05;;;19.90;62.60;;;;;;5056007;28;20206;-69
2021/09/20 03:35:45;;;;;;;3.38;3.08;;;19.90;62.50;;;;;;5054880;28;20167;-68
2021/09/20 03:38:11;;;;;;;3.58;3.03;;;19.80;62.50;;;;;;5055336;28;20190;-69
2021/09/20 03:40:36;;;;;;;3.42;3.13;;;19.80;62.70;;;;;;5055782;28;20183;-68
2021/09/20 03:43:02;;;;;;;3.10;2.80;;;19.80;62.50;;;;;;5054479;28;20245;-68
2021/09/20 03:45:28;;;;;;;3.05;2.85;;;19.80;62.50;;;;;;5055658;28;20630;-67
2021/09/20 03:47:53;;;;;;;2.95;2.75;;;19.80;62.50;;;;;;5055159;28;20179;-67
2021/09/20 03:50:19;;;;;;;3.13;2.92;;;19.80;62.50;;;;;;5054748;28;20170;-68
2021/09/20 03:52:44;;;;;;;2.63;2.42;;;19.80;62.50;;;;;;5055308;28;20178;-68
2021/09/20 03:55:10;;;;;;;3.45;3.03;;;19.80;62.50;;;;;;5055216;28;20174;-69
2021/09/20 03:57:36;;;;;;;2.50;2.30;;;19.80;62.50;;;;;;5054781;28;20180;-68
2021/09/20 04:00:01;;;;;;;3.55;3.25;;;19.80;62.50;;;;;;5054902;28;20249;-68
2021/09/20 04:02:27;;;;;;;3.63;3.22;;;19.80;62.40;;;;;;5055373;28;20214;-67
2021/09/20 04:04:52;;;;;;;3.00;2.80;;;19.80;62.50;;;;;;5054322;28;20171;-67
2021/09/20 04:07:18;;;;;;;3.33;3.00;;;19.70;62.40;;;;;;5055172;28;20225;-67
2021/09/20 04:09:43;;;;;;;3.30;3.00;;;19.70;62.40;;;;;;5055128;28;20577;-68
2021/09/20 04:12:09;;;;;;;3.45;3.15;;;19.80;62.50;;;;;;5054212;28;20277;-69
2021/09/20 04:14:37;;;;;;;3.38;3.08;;;19.80;62.50;;;;;;5055130;28;20287;-69
2021/09/20 04:17:04;;;;;;;3.40;3.20;;;19.70;62.30;;;;;;5053884;28;20653;-69
2021/09/20 04:19:29;;;;;;;3.10;2.90;;;19.70;62.40;;;;;;5054431;28;20238;-68
2021/09/20 04:21:55;;;;;;;3.20;3.00;;;19.70;62.30;;;;;;5054571;28;20598;-68
2021/09/20 04:24:20;;;;;;;3.35;3.05;;;19.70;62.30;;;;;;5054056;28;20185;-68
2021/09/20 04:26:46;;;;;;;3.90;3.60;;;19.70;62.40;;;;;;5054936;28;20171;-67
2021/09/20 04:29:11;;;;;;;3.63;3.33;;;19.70;62.40;;;;;;5054553;28;20178;-67
2021/09/20 04:31:37;;;;;;;3.60;3.30;;;19.70;62.30;;;;;;5054044;28;20195;-68
2021/09/20 04:34:02;;;;;;;3.55;3.25;;;19.70;62.40;;;;;;5054413;28;20172;-69
2021/09/20 04:36:28;;;;;;;3.38;3.10;;;19.70;62.40;;;;;;5054596;28;20233;-69
2021/09/20 04:38:53;;;;;;;3.38;3.17;;;19.70;62.40;;;;;;5053408;28;20509;-69
2021/09/20 04:41:19;;;;;;;3.03;2.83;;;19.70;62.40;;;;;;5054601;28;20629;-69
2021/09/20 04:43:44;;;;;;;3.53;3.22;;;19.70;62.40;;;;;;5054226;28;20242;-68
2021/09/20 04:46:10;;;;;;;3.28;3.08;;;19.70;62.40;;;;;;5053364;28;20171;-68
2021/09/20 04:48:35;;;;;;;3.00;2.70;;;19.60;62.30;;;;;;5054454;28;20182;-67
2021/09/20 04:51:01;;;;;;;4.03;3.20;;;19.60;62.40;;;;;;5054036;28;20171;-68
2021/09/20 04:53:26;;;;;;;3.92;3.53;;;19.60;62.30;;;;;;5053488;28;20178;-68
2021/09/20 04:55:52;;;;;;;3.60;3.30;;;19.60;62.30;;;;;;5053725;28;20566;-69
2021/09/20 04:58:17;;;;;;;3.42;3.13;;;19.60;62.30;;;;;;5054061;28;20209;-68
2021/09/20 05:00:43;;;;;;;3.40;3.13;;;19.60;62.30;;;;;;5053578;28;20179;-68
2021/09/20 05:03:08;;;;;;;3.58;3.28;;;19.60;62.30;;;;;;5053732;28;20677;-68
2021/09/20 05:05:34;;;;;;;3.10;2.90;;;19.60;62.40;;;;;;5053917;28;20759;-67
2021/09/20 05:07:59;;;;;;;3.63;3.33;;;19.60;62.30;;;;;;5052782;28;20217;-67
2021/09/20 05:10:25;;;;;;;3.33;3.13;;;19.60;62.40;;;;;;5054039;28;20167;-68
2021/09/20 05:12:50;;;;;;;3.38;3.17;;;19.60;62.30;;;;;;5053361;28;20227;-70
2021/09/20 05:15:16;;;;;;;3.47;3.17;;;19.60;62.30;;;;;;5052867;28;20260;-69
2021/09/20 05:17:42;;;;;;;3.60;3.30;;;19.60;62.30;;;;;;5053787;28;20645;-68
2021/09/20 05:20:09;;;;;;;3.53;3.22;;;19.60;62.30;;;;;;5052617;28;20183;-69
2021/09/20 05:22:34;;;;;;;3.58;3.28;;;19.60;62.30;;;;;;5053925;28;20221;-68
2021/09/20 05:25:00;;;;;;;3.35;3.10;;;19.60;62.30;;;;;;5053516;28;20254;-68
2021/09/20 05:27:28;;;;;;;3.97;3.40;;;19.60;62.30;;;;;;5052981;28;20285;-68
2021/09/20 05:29:54;;;;;;;3.70;3.40;;;19.60;62.30;;;;;;5053275;28;20232;-68
2021/09/20 05:32:20;;;;;;;3.70;3.40;;;19.60;62.40;;;;;;5052804;28;20270;-69
2021/09/20 05:34:45;;;;;;;4.30;3.90;;;19.60;62.30;;;;;;5052702;28;20697;-70
2021/09/20 05:37:11;;;;;;;3.55;3.25;;;19.60;62.40;;;;;;5053297;28;20182;-70
2021/09/20 05:39:36;;;;;;;4.03;3.72;;;19.60;62.30;;;;;;5053296;28;20167;-69
2021/09/20 05:42:02;;;;;;;4.60;3.83;;;19.60;62.30;;;;;;5052286;28;20609;-69
2021/09/20 05:44:27;;;;;;;3.97;3.47;;;19.60;62.30;;;;;;5053267;28;20194;-68
2021/09/20 05:46:53;;;;;;;4.32;3.92;;;19.60;62.30;;;;;;5052964;28;20297;-68
2021/09/20 05:49:18;;;;;;;3.80;3.50;;;19.60;62.30;;;;;;5052420;28;20171;-68
2021/09/20 05:51:44;;;;;;;4.38;3.97;;;19.60;62.30;;;;;;5053129;28;20225;-68
2021/09/20 05:54:10;;;;;;;3.90;3.50;;;19.60;62.30;;;;;;5052885;28;20181;-68
2021/09/20 05:56:36;;;;;;;3.80;3.50;;;19.60;62.30;;;;;;5052487;28;20183;-69
2021/09/20 05:59:01;;;;;;;3.92;3.63;;;19.60;62.30;;;;;;5052744;28;20221;-68
2021/09/20 06:01:27;;;;;;;4.25;3.42;;;19.60;62.30;;;;;;5053158;28;20170;-68
2021/09/20 06:03:52;;;;;;;3.60;3.30;;;19.60;62.30;;;;;;5051785;28;20262;-68
2021/09/20 06:06:18;;;;;;;3.55;3.25;;;19.60;62.30;;;;;;5053413;28;20189;-68
2021/09/20 06:08:43;;;;;;;4.15;3.75;;;19.60;62.20;;;;;;5053059;28;20691;-68
2021/09/20 06:11:11;;;;;;;4.10;3.55;;;19.60;62.20;;;;;;5052122;28;20207;-68
2021/09/20 06:13:36;;;;;;;3.83;3.47;;;19.60;62.20;;;;;;5052812;28;20227;-69
2021/09/20 06:16:02;;;;;;;3.67;3.38;;;19.60;62.10;;;;;;5052453;28;20583;-69
2021/09/20 06:18:27;;;;;;;3.88;3.58;;;19.60;62.20;;;;;;5051978;28;20696;-69
2021/09/20 06:20:53;;;;;;;3.72;3.42;;;19.60;62.10;;;;;;5052435;28;20171;-69
2021/09/20 06:23:18;;;;;;;4.50;4.10;;;19.60;62.20;;;;;;5052640;28;20217;-68
2021/09/20 06:25:44;;;;;;;4.28;3.72;;;19.60;60.80;;;;;;5051923;28;20203;-68
2021/09/20 06:28:09;;;;;;;4.75;4.35;;;19.60;61.10;;;;;;5052615;28;20587;-68
2021/09/20 06:30:35;;;;;;;4.60;4.10;;;19.60;61.50;;;;;;5051974;28;20163;-68
2021/09/20 06:33:00;;;;;;;4.72;3.88;;;19.60;61.40;;;;;;5052564;28;20178;-68
2021/09/20 06:35:26;;;;;;;4.50;4.00;;;19.60;61.60;;;;;;5052885;28;20673;-69
2021/09/20 06:37:51;;;;;;;4.30;3.90;;;19.60;61.40;;;;;;5051814;28;20544;-68
2021/09/20 06:40:17;;;;;;;4.20;3.80;;;19.60;61.60;;;;;;5052721;28;20205;-68
2021/09/20 06:42:42;;;;;;;7.07;4.72;;;19.70;61.70;;;;;;5053581;28;20289;-66
2021/09/20 06:45:08;;;;;;;14.25;4.68;;;19.70;61.40;;;;;;5055722;28;20594;-69
2021/09/20 06:47:34;;;;;;;5.07;4.03;;;19.70;61.50;;;;;;5056618;28;20649;-68
2021/09/20 06:49:59;;;;;;;5.43;4.07;;;19.80;61.50;;;;;;5056228;28;20167;-69
2021/09/20 06:52:25;;;;;;;4.68;4.00;;;19.80;61.70;;;;;;5056102;28;20179;-68
2021/09/20 06:54:51;;;;;;;4.32;3.67;;;19.80;61.50;;;;;;5056332;28;20175;-68
2021/09/20 06:57:16;;;;;;;4.88;4.30;;;19.80;61.70;;;;;;5056474;28;20277;-69
2021/09/20 06:59:42;;;;;;;5.60;4.07;;;19.90;61.70;;;;;;5055642;28;20266;-69
2021/09/20 07:02:07;;;;;;;4.45;4.05;;;19.90;61.80;;;;;;5056065;28;20699;-68
2021/09/20 07:04:33;;;;;;;7.53;4.88;;;19.90;61.40;;;;;;5056268;28;20187;-68
2021/09/20 07:06:58;;;;;;;5.63;3.97;;;19.80;61.00;;;;;;5055428;28;20182;-69
2021/09/20 07:09:24;;;;;;;6.75;4.07;;;19.90;61.40;;;;;;5056247;28;20176;-70
2021/09/20 07:11:49;;;;;;;5.32;4.00;;;19.90;61.50;;;;;;5055652;28;20183;-70
2021/09/20 07:14:15;;;;;;;8.20;4.70;;;19.90;61.60;;;;;;5055495;28;20229;-71
2021/09/20 07:16:41;;;;;;;7.32;4.10;;;19.80;61.70;;;;;;5056214;28;20199;-70
2021/09/20 07:19:06;;;;;;;4.20;3.80;;;19.90;61.70;;;;;;5055647;28;20631;-69
2021/09/20 07:21:32;;;;;;;6.55;4.00;;;19.80;61.60;;;;;;5055511;28;20175;-69
2021/09/20 07:23:58;;;;;;;4.90;4.25;;;19.90;61.70;;;;;;5055677;28;20218;-69
2021/09/20 07:26:26;;;;;;;4.60;4.15;;;19.90;61.60;;;;;;5055868;28;20668;-70
2021/09/20 07:28:52;;;;;;;4.70;3.97;;;19.90;61.60;;;;;;5054871;28;20210;-70
2021/09/20 07:31:17;;;;;;;4.72;3.83;;;19.90;61.60;;;;;;5055833;28;20206;-71
2021/09/20 07:33:43;;;;;;;4.25;3.80;;;19.90;61.30;;;;;;5055534;28;20218;-70
2021/09/20 07:36:08;;;;;;;4.85;3.90;;;19.90;61.20;;;;;;5055153;28;20697;-70
2021/09/20 07:38:34;;;;;;;4.95;4.35;;;20.00;61.20;;;;;;5055591;28;20660;-69
2021/09/20 07:41:00;;;;;;;5.20;3.88;;;20.00;61.00;;;;;;5054812;28;20202;-69
2021/09/20 07:43:25;;;;;;;4.47;3.90;;;20.00;61.00;;;;;;5055733;28;20677;-68
2021/09/20 07:45:51;;;;;;;4.20;3.85;;;20.10;61.10;;;;;;5055312;28;20183;-68
2021/09/20 07:48:16;;;;;;;4.63;3.78;;;20.10;61.00;;;;;;5054720;28;20179;-68
2021/09/20 07:50:42;;;;;;;4.53;3.95;;;20.10;61.00;;;;;;5055678;28;20171;-69
2021/09/20 07:53:07;;;;;;;4.95;4.32;;;20.10;61.00;;;;;;5055106;28;20183;-69
2021/09/20 07:55:36;;;;;;;4.22;3.67;;;20.10;60.90;;;;;;5053956;28;20630;-69
2021/09/20 07:58:05;;;;;;;5.05;3.45;;;20.20;61.10;;;;;;5055065;28;20190;-69
2021/09/20 08:00:31;;;;;;;6.30;4.15;;;20.20;61.10;;;;;;5055196;28;20637;-69
2021/09/20 08:02:56;;;;;;;4.53;3.85;;;20.20;61.00;;;;;;5054053;28;20218;-69
2021/09/20 08:05:22;;;;;;;4.55;4.15;;;20.20;61.00;;;;;;5055284;28;20177;-67
2021/09/20 08:07:47;;;;;;;4.50;4.03;;;20.30;61.80;;;;;;5054883;28;20210;-68
2021/09/20 08:10:13;;;;;;;5.18;3.92;;;20.30;60.90;;;;;;5054809;28;20653;-69
2021/09/20 08:12:38;;;;;;;4.85;4.45;;;20.30;60.90;;;;;;5054966;28;20218;-68
2021/09/20 08:15:05;;;;;;;3.85;3.55;;;20.30;60.80;;;;;;5054705;28;20178;-68
2021/09/20 08:17:32;;;;;;;4.50;4.07;;;20.40;60.90;;;;;;5054180;28;20174;-68
2021/09/20 08:19:58;;;;;;;4.25;3.90;;;20.40;60.90;;;;;;5054817;28;20279;-68
2021/09/20 08:22:23;;;;;;;4.60;3.90;;;20.40;60.80;;;;;;5054858;28;20760;-67
2021/09/20 08:24:49;;;;;;;4.30;3.80;;;20.40;60.80;;;;;;5053884;28;20179;-67
2021/09/20 08:27:15;;;;;;;3.95;3.63;;;20.40;60.70;;;;;;5054759;28;20515;-69
2021/09/20 08:29:40;;;;;;;4.43;3.75;;;20.50;60.80;;;;;;5054811;28;20164;-69
2021/09/20 08:32:07;;;;;;;5.30;4.18;;;20.50;60.70;;;;;;5053408;28;20629;-69
2021/09/20 08:34:34;;;;;;;4.38;3.65;;;20.50;60.60;;;;;;5054835;28;20183;-68
2021/09/20 08:37:00;;;;;;;4.35;3.97;;;20.50;60.80;;;;;;5054323;28;20210;-68
2021/09/20 08:39:25;;;;;;;5.20;4.13;;;20.50;60.70;;;;;;5054316;28;20209;-68
2021/09/20 08:41:51;;;;;;;4.20;3.80;;;20.60;60.70;;;;;;5054160;28;20179;-67
2021/09/20 08:44:18;;;;;;;4.50;4.07;;;20.60;60.70;;;;;;5053685;28;20179;-67
2021/09/20 08:46:43;;;;;;;3.88;3.53;;;20.60;60.70;;;;;;5054375;28;20171;-67
2021/09/20 08:49:09;;;;;;;3.97;3.55;;;20.60;60.60;;;;;;5019779;28;20185;-67
2021/09/20 08:51:34;;;;;;;3.90;3.60;;;20.60;60.60;;;;;;5053763;28;20178;-67
2021/09/20 08:54:00;;;;;;;4.43;4.03;;;20.60;60.70;;;;;;5054063;28;20190;-67
2021/09/20 08:56:25;;;;;;;4.10;3.80;;;20.70;60.60;;;;;;5036514;28;20707;-67
2021/09/20 08:58:51;;;;;;;4.63;3.88;;;20.70;60.60;;;;;;5053299;28;20236;-68
2021/09/20 09:01:16;;;;;;;4.50;3.80;;;20.70;60.70;;;;;;5054304;28;20175;-67
2021/09/20 09:03:42;;;;;;;3.95;3.65;;;20.70;60.80;;;;;;5054120;28;20265;-67
2021/09/20 09:06:08;;;;;;;3.80;3.40;;;20.70;60.80;;;;;;5053330;28;20182;-67
2021/09/20 09:08:40;;;;;;;3.85;3.50;;;20.80;60.80;;;;;;5054208;28;20179;-69
2021/09/20 09:11:05;;;;;;;3.80;3.50;;;20.80;60.80;;;;;;5053832;28;20179;-69
2021/09/20 09:13:41;;;;;;;4.82;3.92;;;20.80;60.80;;;;;;5052854;28;20234;-69
2021/09/20 09:16:21;;;;;;;3.42;3.05;;;20.80;60.70;;;;;;5053693;28;20232;-69
2021/09/20 09:19:16;;;;;;;4.15;3.85;;;20.80;60.60;;;;;;5053816;28;20181;-69
2021/09/20 09:21:43;;;;;;;4.25;3.72;;;20.80;60.60;;;;;;5040678;28;20189;-68
2021/09/20 09:24:14;;;;;;;3.80;3.45;;;20.90;60.60;;;;;;5053301;28;20205;-68
2021/09/20 09:26:53;;;;;;;4.15;3.75;;;20.90;60.60;;;;;;5053127;28;20171;-69
2021/09/20 09:29:19;;;;;;;4.40;4.00;;;20.90;60.60;;;;;;5053744;28;20166;-71
2021/09/20 09:31:52;;;;;;;3.55;3.20;;;20.90;60.40;;;;;;5053378;28;20171;-71
2021/09/20 09:34:19;;;;;;;4.30;3.90;;;20.90;60.40;;;;;;5052745;28;20179;-71
2021/09/20 09:36:45;;;;;;;3.70;3.40;;;20.90;60.40;;;;;;5053431;28;20602;-70
2021/09/20 09:39:10;;;;;;;3.72;3.42;;;21.00;60.50;;;;;;5053151;28;20254;-70
2021/09/20 09:41:42;;;;;;;4.50;3.80;;;21.00;60.40;;;;;;5052796;28;20181;-69
2021/09/20 09:44:10;;;;;;;3.67;3.38;;;21.00;60.40;;;;;;5052900;28;20729;-69
2021/09/20 09:46:45;;;;;;;3.55;3.25;;;21.00;60.40;;;;;;5053147;28;20622;-69
2021/09/20 09:49:17;;;;;;;3.65;3.35;;;21.00;60.20;;;;;;5052120;28;20395;-67
2021/09/20 09:52:02;;;;;;;3.80;3.50;;;21.00;60.30;;;;;;5053345;28;20258;-67
2021/09/20 09:54:35;;;;;;;3.50;3.20;;;21.00;60.20;;;;;;5052602;28;20179;-69
2021/09/20 09:57:22;;;;;;;4.20;3.80;;;21.00;60.20;;;;;;5052948;28;20175;-68
2021/09/20 10:00:05;;;;;;;3.47;3.22;;;21.00;60.20;;;;;;5053080;28;20210;-68
2021/09/20 10:02:32;;;;;;;3.40;3.10;;;21.10;60.30;;;;;;5051948;28;20705;-69
2021/09/20 10:05:00;;;;;;;3.30;3.00;;;21.10;60.20;;;;;;5052526;28;20618;-71
2021/09/20 10:07:29;;;;;;;3.78;3.50;;;21.10;60.20;;;;;;5052947;28;20179;-71
2021/09/20 10:09:56;;;;;;;3.70;3.40;;;21.10;60.10;;;;;;5051813;28;20186;-72
2021/09/20 10:12:23;;;;;;;3.78;3.47;;;21.10;60.10;;;;;;5052701;28;20720;-68
2021/09/20 10:14:49;;;;;;;7.03;3.78;;;21.20;60.10;;;;;;5052737;28;20186;-70
2021/09/20 10:17:18;;;;;;;3.63;3.33;;;21.10;60.10;;;;;;5034257;28;20179;-70
2021/09/20 10:19:44;;;;;;;3.88;3.15;;;21.00;60.20;;;;;;5035612;28;20242;-68
2021/09/20 10:22:09;;;;;;;3.50;3.30;;;21.00;60.30;;;;;;5034869;28;20203;-68
2021/09/20 10:24:35;;;;;;;2.97;2.78;;;21.10;60.20;;;;;;5034179;28;20175;-68
2021/09/20 10:27:00;;;;;;;4.03;3.63;;;21.20;60.10;;;;;;5034737;28;20167;-69
2021/09/20 10:29:26;;;;;;;3.22;3.03;;;21.20;59.90;;;;;;5052750;28;20171;-70
2021/09/20 10:31:51;;;;;;;3.75;3.45;;;21.30;59.70;;;;;;5017621;28;20179;-70
2021/09/20 10:34:20;;;;;;;3.75;3.45;;;21.30;59.60;;;;;;5034972;28;20170;-70
2021/09/20 10:36:58;;;;;;;3.50;3.20;;;21.20;59.80;;;;;;5051912;28;20233;-69
2021/09/20 10:40:00;;;;;;;3.78;3.30;;;21.30;59.80;;;;;;5052768;28;20175;-69
2021/09/20 10:42:35;;;;;;;3.83;3.53;;;21.30;59.80;;;;;;5052796;28;20676;-69
2021/09/20 10:45:07;;;;;;;3.35;3.05;;;21.10;60.00;;;;;;5051612;28;20349;-68
2021/09/20 10:47:44;;;;;;;4.55;3.42;;;21.00;60.10;;;;;;5052641;28;20186;-69
2021/09/20 10:50:10;;;;;;;4.70;4.20;;;21.00;60.30;;;;;;5052540;28;20518;-71
2021/09/20 10:52:35;;;;;;;4.38;3.88;;;20.90;59.60;;;;;;5051976;28;20174;-67
2021/09/20 10:55:03;;;;;;;4.68;3.58;;;20.90;59.90;;;;;;5052286;28;20207;-68
2021/09/20 10:57:28;;;;;;;4.97;4.32;;;20.90;59.90;;;;;;5052476;28;20175;-68
2021/09/20 11:00:23;;;;;;;4.93;3.78;;;21.00;59.80;;;;;;5017303;28;20175;-68
2021/09/20 11:02:49;;;;;;;3.55;3.25;;;21.10;59.50;;;;;;5052175;28;20580;-68
2021/09/20 11:05:14;;;;;;;4.43;3.60;;;21.20;59.60;;;;;;5051737;28;20167;-68
2021/09/20 11:07:49;;;;;;;3.53;3.22;;;21.20;59.40;;;;;;5052374;28;20175;-71
2021/09/20 11:10:15;;;;;;;4.10;3.75;;;21.20;59.50;;;;;;5052219;28;20175;-71
2021/09/20 11:13:03;;;;;;;3.88;3.58;;;21.10;59.60;;;;;;5051354;28;20233;-71
2021/09/20 11:15:40;;;;;;;3.85;3.55;;;21.10;59.70;;;;;;5052257;28;20179;-70
2021/09/20 11:18:05;;;;;;;3.92;3.63;;;21.00;59.80;;;;;;5052002;28;20186;-68
2021/09/20 11:20:35;;;;;;;3.78;3.47;;;21.00;59.80;;;;;;5051405;28;20549;-67
2021/09/20 11:23:21;;;;;;;4.88;3.88;;;21.10;59.70;;;;;;5051987;28;20342;-67
2021/09/20 11:26:07;;;;;;;3.78;3.47;;;21.10;59.80;;;;;;5051941;28;20198;-67
2021/09/20 11:28:34;;;;;;;11.27;3.83;;;21.00;59.80;;;;;;5051115;28;20215;-71
2021/09/20 11:30:59;;;;;;;4.30;3.47;;;21.00;59.80;;;;;;5053688;28;20549;-71
2021/09/20 11:33:42;;;;;;;3.92;3.63;;;21.10;59.90;;;;;;5066839;28;20655;-70
2021/09/20 11:36:23;;;;;;;4.60;4.20;;;21.00;59.80;;;;;;5075887;28;20186;-69
2021/09/20 11:38:49;;;;;;;3.58;3.30;;;21.10;59.90;;;;;;5075077;28;20185;-68
2021/09/20 11:41:22;;;;;;;4.03;3.63;;;21.00;60.00;;;;;;5074927;28;20219;-71
2021/09/20 11:43:48;;;;;;;3.20;3.00;;;21.00;60.00;;;;;;5075374;28;20222;-69
2021/09/20 11:46:20;;;;;;;4.38;3.65;;;21.00;60.00;;;;;;5075567;28;20178;-68
2021/09/20 11:48:46;;;;;;;4.13;3.83;;;20.90;60.10;;;;;;5074917;28;20564;-67
2021/09/20 11:51:11;;;;;;;4.47;3.50;;;21.00;60.10;;;;;;5075401;28;20756;-68
2021/09/20 11:53:37;;;;;;;3.70;3.40;;;20.90;60.10;;;;;;5075475;28;20174;-67
2021/09/20 11:56:02;;;;;;;3.60;3.33;;;20.90;60.10;;;;;;5074270;28;20167;-68
2021/09/20 11:58:28;;;;;;;3.80;3.38;;;20.90;60.20;;;;;;5075734;28;20182;-68
2021/09/20 12:00:53;;;;;;;4.10;3.72;;;20.90;60.10;;;;;;5074995;28;20182;-65
2021/09/20 12:03:24;;;;;;;5.00;4.30;;;20.90;60.10;;;;;;5074276;28;20615;-69
2021/09/20 12:05:49;;;;;;;4.43;4.00;;;20.90;59.70;;;;;;5075055;28;20180;-68
2021/09/20 12:08:20;;;;;;;4.15;3.75;;;20.90;59.30;;;;;;5074541;28;20261;-68
2021/09/20 12:10:53;;;;;;;4.07;3.75;;;20.90;59.00;;;;;;5075022;28;20178;-70
2021/09/20 12:13:23;;;;;;;4.60;3.95;;;20.90;59.10;;;;;;5075229;28;20234;-68
2021/09/20 12:15:52;;;;;;;6.78;3.92;;;20.90;59.20;;;;;;5074100;28;20175;-69
2021/09/20 12:18:20;;;;;;;4.28;3.80;;;20.90;59.30;;;;;;5075016;28;20253;-69
2021/09/20 12:20:46;;;;;;;4.22;3.80;;;20.80;59.30;;;;;;5072915;28;20182;-68
2021/09/20 12:23:18;;;;;;;4.45;3.95;;;20.90;59.40;;;;;;5056482;28;20211;-68
2021/09/20 12:25:49;;;;;;;4.85;3.88;;;20.90;59.50;;;;;;5062478;28;20624;-68
2021/09/20 12:28:42;;;;;;;4.63;3.78;;;20.80;59.40;;;;;;5074999;28;20179;-69
2021/09/20 12:31:11;;;;;;;3.95;3.55;;;20.80;59.50;;;;;;5032971;28;20254;-70
2021/09/20 12:33:52;;;;;;;4.20;3.83;;;20.80;59.60;;;;;;5034694;28;20222;-68
2021/09/20 12:36:27;;;;;;;3.97;3.58;;;20.80;59.60;;;;;;5034198;28;20183;-69
2021/09/20 12:39:00;;;;;;;4.13;3.75;;;20.80;59.60;;;;;;5055792;28;20205;-69
2021/09/20 12:41:31;;;;;;;4.38;4.00;;;20.80;59.80;;;;;;5074122;28;20183;-68
2021/09/20 12:43:57;;;;;;;3.97;3.67;;;20.80;59.80;;;;;;5074273;28;20676;-67
2021/09/20 12:46:23;;;;;;;4.35;3.40;;;20.80;59.80;;;;;;5074691;28;20224;-67
2021/09/20 12:48:52;;;;;;;3.88;3.47;;;20.80;59.90;;;;;;5074254;28;20265;-66